Crystal, Nevada
Current Conditions -  °F | °C
As of 11:52 AM on Wednesday 28 Jan 2015 (Local Time) from KDRA Reporting Station
Clear Clear  
Wind Chill: 59°   Ceiling: Unl
Heat Index: 59°   Visibility: 10mi
Dew Point: 40°   Wind: 14mph
Humidity: 49%   Direction: 20°NNE
Pressure: 30.22"   Gusts: NA
Location:  36.2552°N, 116.039°W
Report Text: KDRA 281952Z AUTO 02012KT 10SM CLR 15/04 A3022 RMK AO2 SLP216 T01500044
Loading
Personal Weather Stations






























Interactive Weather Map New forecast layout! Learn more

10-Day Weather Forecast

Advertisements
Track Severe Weather on mobile